Aérodrome :
LOGIN :

S'inscrire | Disclaimer

   EN    FR    IT 

 










Légende :    VFR   VFR Marginal   IFR   IFR Intensif   IFR Très Intensif
Visi : 
Plafond : 
>= 8 km
>= 3000ft
5 à 8 km
1000 à 3000 ft
1500m à 5 km
500 à 1000 ft
800 à 1500m
200 à 500 ft
< 800m
< 200 ft
Symboles :   Orages  Brouillard  Fortes neiges  Fortes précipitations  Vent > 20 kt
SIGMETs :   Divers  Orages  Givrage  Turbulence  Onde Orograph.  Cendres Volcan.






- Altitude de l'aérodrome : 495 ft
- Code IATA : BUD


LHBP - Budapest Ferihegy

DERNIER METAR :
  • 271200Z 28010KT 9999 BKN045 17/05 Q1010 NOSIG

METARs EXPIRÉS :
  • 271130Z 27007KT 240V310 9999 BKN042 16/06 Q1010 NOSIG
  • 271100Z 24010KT 210V280 9999 BKN040 16/06 Q1010 NOSIG
  • 271030Z 23010KT 200V270 9999 BKN038 15/05 Q1009 NOSIG
  • 271000Z 23011KT 200V260 9999 BKN035 SCT230 15/06 Q1009 NOSIG
  • 270930Z 23013KT 9999 SCT035 SCT220 14/06 Q1009 NOSIG

TAF TAF LHBP
Valide du 27 à 12h jusqu'au 28 à 12h UTC


271115Z 2712/2812 26008KT 9999 SCT043
BECMG 2713/2715 19005KT CAVOK
BECMG 2715/2717 10007KT
BECMG 2722/2801 08015KT -RA SCT040 OVC070
TEMPO 2801/2808 10018G30KT SHRA RA
BECMG 2808/2811 11008KT NSW SCT025 BKN170



MET'MAP, la Météo Aéronautique d'un coup d'oeil ! - Copyright ORBIFLY Décembre 2007 - Disclaimer

ORBIFLY MET'MAP TEAM :

Programmation & Développement : Alexandra Zaïnal
Sur une idée originale de : Baudouin d'Aumeries
Assistance à la programmation : Marc-Olivier Méhu
Soutien technique & logistique : Manuel Goepfert

Contact : metmap@orbifly.com




SOURCES & CREDITS :

   NOAA